createdAt,value
2023-03-07T00:01:08.601Z,92.40
2023-03-07T00:03:36.831Z,92.40
2023-03-07T00:06:08.449Z,92.50
2023-03-07T00:08:35.920Z,92.30
2023-03-07T00:11:08.575Z,92.40
2023-03-07T00:13:37.984Z,92.60
2023-03-07T00:16:12.807Z,92.70
2023-03-07T00:18:41.219Z,92.70
2023-03-07T00:21:12.270Z,92.70
2023-03-07T00:23:41.769Z,93.00
2023-03-07T00:26:14.161Z,93.10
2023-03-07T00:28:43.099Z,93.20
2023-03-07T00:31:11.599Z,93.20
2023-03-07T00:33:39.425Z,93.10
2023-03-07T00:36:25.172Z,93.10
2023-03-07T00:38:52.712Z,93.20
2023-03-07T00:41:23.309Z,92.90
2023-03-07T00:43:50.500Z,92.90
2023-03-07T00:46:20.221Z,92.80
2023-03-07T00:48:48.007Z,93.00
2023-03-07T00:51:18.839Z,93.10
2023-03-07T00:53:46.533Z,93.20
2023-03-07T00:56:17.113Z,93.30
2023-03-07T00:58:45.989Z,93.30
2023-03-07T01:01:16.235Z,93.70
2023-03-07T01:03:44.139Z,93.60
2023-03-07T01:06:16.370Z,93.70
2023-03-07T01:08:44.149Z,93.80
2023-03-07T01:11:12.705Z,93.90
2023-03-07T01:13:40.331Z,93.80
2023-03-07T01:16:32.466Z,93.80
2023-03-07T01:19:04.196Z,94.00
2023-03-07T01:21:35.595Z,93.80
2023-03-07T01:24:12.331Z,93.80
2023-03-07T01:26:39.405Z,94.00
2023-03-07T01:29:07.791Z,94.10
2023-03-07T01:31:36.423Z,93.90
2023-03-07T01:34:04.057Z,94.00
2023-03-07T01:36:35.619Z,94.00
2023-03-07T01:39:14.118Z,94.00
2023-03-07T01:41:46.206Z,93.80
2023-03-07T01:44:21.902Z,93.90
2023-03-07T01:46:56.192Z,93.90
2023-03-07T01:49:36.567Z,93.90
2023-03-07T01:52:15.217Z,93.80
2023-03-07T01:54:52.190Z,93.80
2023-03-07T01:57:28.492Z,93.70
2023-03-07T01:59:59.967Z,93.70
2023-03-07T02:02:29.305Z,93.70
2023-03-07T02:05:16.487Z,93.50
2023-03-07T02:07:49.570Z,93.40
2023-03-07T02:10:22.655Z,93.40
2023-03-07T02:12:52.224Z,93.30
2023-03-07T02:15:19.253Z,93.20
2023-03-07T02:17:46.531Z,93.20
2023-03-07T02:20:50.422Z,93.10
2023-03-07T02:24:02.098Z,93.00
2023-03-07T02:26:28.869Z,92.80
2023-03-07T02:28:56.189Z,92.70
2023-03-07T02:31:23.946Z,92.50
2023-03-07T02:33:50.941Z,92.40
2023-03-07T02:36:24.062Z,92.30
2023-03-07T02:39:02.634Z,91.90
2023-03-07T02:41:32.432Z,91.80
2023-03-07T02:44:02.703Z,91.60
2023-03-07T02:46:30.340Z,91.60
2023-03-07T02:48:57.399Z,91.60
2023-03-07T02:51:24.449Z,91.60
2023-03-07T02:53:51.575Z,91.40
2023-03-07T02:56:18.442Z,91.40
2023-03-07T02:58:45.978Z,91.40
2023-03-07T03:01:13.358Z,91.30
2023-03-07T03:03:40.303Z,91.30
2023-03-07T03:06:07.191Z,91.20
2023-03-07T03:08:34.118Z,91.10
2023-03-07T03:11:00.997Z,91.10
2023-03-07T03:13:28.691Z,91.00
2023-03-07T03:15:57.044Z,91.00
2023-03-07T03:18:27.721Z,91.00
2023-03-07T03:20:54.753Z,91.00
2023-03-07T03:23:21.824Z,91.10
2023-03-07T03:25:59.645Z,91.20
2023-03-07T03:28:29.279Z,91.50
2023-03-07T03:31:08.806Z,91.50
2023-03-07T03:33:36.819Z,91.70
2023-03-07T03:36:11.175Z,92.00
2023-03-07T03:38:39.237Z,92.00
2023-03-07T03:41:12.879Z,92.70
2023-03-07T03:43:40.212Z,92.30
2023-03-07T03:46:08.024Z,92.40
2023-03-07T03:48:36.694Z,92.50
2023-03-07T03:51:08.432Z,92.60
2023-03-07T03:53:37.833Z,92.90
2023-03-07T03:56:12.154Z,93.00
2023-03-07T03:58:40.776Z,93.30
2023-03-07T04:01:11.837Z,93.70
2023-03-07T04:03:42.574Z,93.90
2023-03-07T04:06:18.572Z,94.00
2023-03-07T04:08:46.695Z,94.10
2023-03-07T04:11:14.609Z,94.30
2023-03-07T04:13:41.877Z,94.50
2023-03-07T04:16:09.758Z,94.70
2023-03-07T04:18:37.037Z,94.80
2023-03-07T04:21:05.965Z,95.10
2023-03-07T04:23:33.973Z,95.20
2023-03-07T04:26:04.230Z,95.50
2023-03-07T04:28:45.232Z,95.60
2023-03-07T04:31:38.154Z,95.90
2023-03-07T04:34:06.183Z,96.00
2023-03-07T04:36:33.673Z,96.10
2023-03-07T04:39:00.602Z,96.10
2023-03-07T04:41:27.485Z,96.40
2023-03-07T04:44:04.505Z,96.70
2023-03-07T04:46:31.432Z,96.80
2023-03-07T04:48:58.785Z,97.00
2023-03-07T04:51:25.734Z,97.20
2023-03-07T04:53:52.647Z,97.40
2023-03-07T04:56:19.533Z,97.60
2023-03-07T04:58:47.674Z,97.60
2023-03-07T05:01:15.332Z,97.90
2023-03-07T05:03:42.927Z,97.50
2023-03-07T05:06:14.955Z,97.50
2023-03-07T05:08:45.838Z,97.60
2023-03-07T05:11:12.850Z,97.50
2023-03-07T05:13:39.722Z,97.40
2023-03-07T05:16:07.316Z,97.50
2023-03-07T05:18:34.223Z,97.50
2023-03-07T05:21:01.469Z,97.50
2023-03-07T05:23:29.149Z,97.50
2023-03-07T05:25:56.587Z,97.60
2023-03-07T05:28:24.832Z,97.50
2023-03-07T05:30:52.755Z,97.60
2023-03-07T05:33:20.131Z,97.50
2023-03-07T05:35:48.164Z,97.60
2023-03-07T05:38:15.851Z,97.60
2023-03-07T05:40:43.142Z,97.30
2023-03-07T05:43:11.510Z,97.40
2023-03-07T05:45:38.810Z,97.30
2023-03-07T05:48:06.008Z,97.20
2023-03-07T05:50:32.930Z,97.30
2023-03-07T05:53:00.114Z,97.30
2023-03-07T05:55:30.343Z,97.00
2023-03-07T05:57:57.888Z,96.90
2023-03-07T06:00:25.633Z,96.80
2023-03-07T06:03:05.127Z,97.10
2023-03-07T06:05:33.061Z,97.00
2023-03-07T06:08:00.118Z,96.90
2023-03-07T06:10:27.400Z,96.90
2023-03-07T06:12:54.750Z,96.90
2023-03-07T06:15:24.345Z,97.20
2023-03-07T06:17:55.277Z,97.30
2023-03-07T06:20:22.232Z,97.30
2023-03-07T06:22:49.778Z,97.40
2023-03-07T06:25:17.105Z,97.40
2023-03-07T06:27:44.273Z,97.20
2023-03-07T06:30:12.597Z,97.40
2023-03-07T06:32:40.276Z,97.50
2023-03-07T06:35:07.995Z,97.30
2023-03-07T06:37:34.896Z,97.40
2023-03-07T06:40:06.247Z,97.50
2023-03-07T06:42:35.564Z,97.50
2023-03-07T06:45:03.467Z,97.60
2023-03-07T06:47:30.394Z,97.40
2023-03-07T06:49:57.467Z,97.40
2023-03-07T06:52:24.645Z,97.40
2023-03-07T06:54:52.270Z,97.40
2023-03-07T06:57:19.264Z,97.50
2023-03-07T06:59:46.143Z,97.50
2023-03-07T07:02:15.068Z,97.50
2023-03-07T07:04:42.136Z,97.50
2023-03-07T07:07:09.156Z,97.30
2023-03-07T07:09:36.222Z,97.30
2023-03-07T07:12:04.942Z,97.30
2023-03-07T07:14:34.542Z,97.30
2023-03-07T07:17:03.309Z,97.20
2023-03-07T07:19:30.258Z,97.00
2023-03-07T07:21:58.696Z,97.10
2023-03-07T07:24:25.620Z,97.00
2023-03-07T07:26:53.747Z,96.90
2023-03-07T07:29:21.090Z,96.80
2023-03-07T07:31:49.813Z,96.70
2023-03-07T07:34:18.759Z,96.70
2023-03-07T07:36:46.291Z,96.70
2023-03-07T07:39:15.172Z,96.70
2023-03-07T07:41:44.513Z,96.60
2023-03-07T07:44:12.386Z,96.60
2023-03-07T07:46:53.653Z,96.40
2023-03-07T07:49:21.066Z,96.30
2023-03-07T07:51:47.996Z,96.20
2023-03-07T07:54:14.923Z,96.10
2023-03-07T07:56:42.098Z,96.00
2023-03-07T07:59:09.199Z,96.00
2023-03-07T08:01:36.235Z,96.00
2023-03-07T08:04:03.107Z,95.80
2023-03-07T08:06:30.772Z,95.80
2023-03-07T08:08:57.944Z,95.80
2023-03-07T08:11:24.884Z,95.90
2023-03-07T08:13:51.924Z,95.90
2023-03-07T08:16:22.432Z,95.90
2023-03-07T08:18:55.917Z,96.00
2023-03-07T08:21:24.242Z,95.90
2023-03-07T08:23:51.914Z,95.80
2023-03-07T08:26:18.782Z,95.60
2023-03-07T08:28:46.017Z,95.50
2023-03-07T08:31:18.668Z,95.30
2023-03-07T08:33:50.783Z,95.50
2023-03-07T08:36:18.226Z,95.10
2023-03-07T08:38:51.565Z,95.10
2023-03-07T08:41:20.464Z,95.20
2023-03-07T08:43:47.392Z,94.60
2023-03-07T08:46:14.482Z,94.50
2023-03-07T08:48:41.399Z,94.30
2023-03-07T08:51:12.085Z,93.90
2023-03-07T08:53:39.082Z,94.00
2023-03-07T08:56:07.645Z,94.10
2023-03-07T08:58:34.741Z,94.00
2023-03-07T09:01:01.981Z,93.70
2023-03-07T09:03:28.827Z,94.00
2023-03-07T09:05:55.738Z,93.90
2023-03-07T09:08:22.768Z,93.80
2023-03-07T09:10:49.761Z,93.90
2023-03-07T09:13:18.566Z,94.10
2023-03-07T09:15:45.855Z,94.10
2023-03-07T09:18:12.940Z,94.00
2023-03-07T09:20:40.366Z,94.00
2023-03-07T09:23:08.363Z,94.10
2023-03-07T09:25:35.270Z,93.80
2023-03-07T09:28:02.167Z,93.90
2023-03-07T09:30:29.082Z,93.60
2023-03-07T09:32:57.066Z,93.70
2023-03-07T09:35:24.734Z,93.40
2023-03-07T09:37:51.598Z,93.40
2023-03-07T09:40:25.457Z,93.10
2023-03-07T09:43:10.523Z,93.00
2023-03-07T09:46:30.093Z,92.50
2023-03-07T09:49:16.985Z,92.60
2023-03-07T09:51:46.726Z,92.60
2023-03-07T09:54:21.693Z,92.70
2023-03-07T09:57:02.314Z,92.40
2023-03-07T09:59:58.684Z,92.40
2023-03-07T10:02:48.359Z,92.50
2023-03-07T10:05:35.441Z,92.40
2023-03-07T10:08:05.083Z,92.40
2023-03-07T10:10:50.198Z,92.30
2023-03-07T10:14:09.533Z,91.90
2023-03-07T10:17:11.153Z,91.90
2023-03-07T10:19:49.874Z,92.00
2023-03-07T10:22:42.834Z,91.70
2023-03-07T10:25:31.305Z,91.50
2023-03-07T10:28:25.849Z,91.00
2023-03-07T10:30:59.164Z,90.60
2023-03-07T10:33:27.628Z,90.70
2023-03-07T10:36:06.268Z,90.60
2023-03-07T10:39:30.222Z,90.50
2023-03-07T10:41:57.538Z,90.50
2023-03-07T10:44:28.488Z,90.00
2023-03-07T10:46:59.167Z,90.10
2023-03-07T10:49:37.943Z,90.10
2023-03-07T10:52:20.130Z,89.50
2023-03-07T10:54:47.025Z,90.00
2023-03-07T10:57:18.899Z,89.60
2023-03-07T10:59:48.551Z,89.10
2023-03-07T11:02:45.401Z,88.80
2023-03-07T11:05:24.402Z,88.20
2023-03-07T11:07:51.316Z,88.60
2023-03-07T11:10:40.087Z,88.10
2023-03-07T11:13:19.288Z,87.80
2023-03-07T11:15:46.920Z,88.00
2023-03-07T11:18:42.117Z,87.90
2023-03-07T11:21:34.095Z,87.20
2023-03-07T11:24:25.888Z,85.90
2023-03-07T11:26:58.414Z,87.10
2023-03-07T11:29:28.268Z,86.10
2023-03-07T11:32:10.745Z,86.40
2023-03-07T11:34:49.745Z,85.80
2023-03-07T11:37:31.288Z,85.50
2023-03-07T11:40:18.537Z,86.00
2023-03-07T11:43:10.779Z,84.90
2023-03-07T11:46:04.025Z,84.90
2023-03-07T11:49:00.372Z,85.40
2023-03-07T11:51:42.321Z,83.70
2023-03-07T11:54:56.261Z,83.70
2023-03-07T11:57:54.078Z,83.20
2023-03-07T12:00:55.706Z,83.70
2023-03-07T12:04:00.766Z,84.00
2023-03-07T12:06:56.795Z,84.80
2023-03-07T12:09:33.839Z,83.30
2023-03-07T12:12:53.708Z,83.50
2023-03-07T12:15:56.585Z,82.20
2023-03-07T12:19:19.449Z,82.10
2023-03-07T12:22:15.104Z,82.70
2023-03-07T12:24:50.118Z,82.60
2023-03-07T12:27:46.046Z,82.20
2023-03-07T12:30:33.249Z,82.60
2023-03-07T12:33:00.285Z,83.50
2023-03-07T12:35:37.140Z,86.00
2023-03-07T12:38:36.587Z,87.50
2023-03-07T12:41:39.672Z,88.80
2023-03-07T12:44:28.642Z,90.00
2023-03-07T12:47:08.890Z,90.30
2023-03-07T12:50:16.254Z,90.70
2023-03-07T12:53:16.132Z,90.00
2023-03-07T12:55:49.584Z,89.60
2023-03-07T12:58:39.658Z,90.60
2023-03-07T13:01:27.368Z,91.70
2023-03-07T13:04:09.122Z,92.40
2023-03-07T13:06:39.741Z,92.90
2023-03-07T13:09:06.708Z,93.20
2023-03-07T13:11:34.791Z,93.50
2023-03-07T13:14:04.315Z,93.60
2023-03-07T13:16:40.229Z,93.70
2023-03-07T13:19:38.970Z,92.90
2023-03-07T13:22:14.995Z,92.80
2023-03-07T13:24:43.871Z,92.60
2023-03-07T13:27:23.223Z,92.40
2023-03-07T13:30:08.163Z,92.20
2023-03-07T13:32:55.890Z,91.60
2023-03-07T13:35:29.025Z,91.60
2023-03-07T13:38:11.173Z,91.20
2023-03-07T13:40:46.681Z,91.00
2023-03-07T13:43:19.620Z,90.40
2023-03-07T13:45:50.482Z,90.50
2023-03-07T13:48:20.054Z,90.50
2023-03-07T13:50:49.537Z,90.00
2023-03-07T13:53:38.935Z,90.20
2023-03-07T13:56:19.851Z,89.70
2023-03-07T13:58:57.878Z,89.30
2023-03-07T14:02:10.640Z,89.30
2023-03-07T14:04:54.199Z,89.60
2023-03-07T14:07:35.818Z,89.50
2023-03-07T14:10:27.950Z,89.00
2023-03-07T14:13:16.490Z,89.10
2023-03-07T14:16:19.288Z,86.90
2023-03-07T14:19:06.397Z,85.70
2023-03-07T14:21:55.293Z,85.60
2023-03-07T14:24:55.724Z,85.30
2023-03-07T14:27:22.632Z,85.90
2023-03-07T14:29:57.017Z,84.90
2023-03-07T14:32:32.077Z,85.30
2023-03-07T14:34:59.767Z,85.10
2023-03-07T14:37:31.156Z,84.70
2023-03-07T14:40:31.827Z,84.80
2023-03-07T14:43:21.665Z,84.50
2023-03-07T14:46:46.303Z,85.10
2023-03-07T14:49:57.733Z,84.30
2023-03-07T14:52:31.219Z,84.20
2023-03-07T14:55:05.443Z,84.30
2023-03-07T14:57:37.945Z,84.20
2023-03-07T15:00:15.408Z,83.80
2023-03-07T15:02:57.547Z,83.10
2023-03-07T15:05:37.620Z,82.90
2023-03-07T15:08:26.738Z,83.30
2023-03-07T15:11:16.265Z,83.20
2023-03-07T15:14:00.935Z,83.00
2023-03-07T15:16:49.527Z,83.20
2023-03-07T15:20:00.263Z,82.80
2023-03-07T15:22:32.508Z,81.90
2023-03-07T15:24:59.639Z,81.70
2023-03-07T15:27:30.689Z,81.10
2023-03-07T15:30:00.464Z,81.00
2023-03-07T15:32:40.583Z,81.00
2023-03-07T15:35:10.975Z,79.40
2023-03-07T15:38:07.544Z,78.60
2023-03-07T15:40:36.124Z,77.90
2023-03-07T15:43:04.382Z,78.30
2023-03-07T15:45:34.305Z,77.30
2023-03-07T15:48:24.956Z,77.40
2023-03-07T15:50:58.213Z,76.70
2023-03-07T15:53:33.101Z,76.20
2023-03-07T15:56:03.646Z,76.60
2023-03-07T15:58:31.432Z,76.50
2023-03-07T16:01:21.892Z,76.20
2023-03-07T16:03:54.140Z,75.20
2023-03-07T16:06:40.644Z,75.90
2023-03-07T16:09:13.572Z,75.90
2023-03-07T16:11:41.895Z,76.10
2023-03-07T16:14:22.550Z,76.20
2023-03-07T16:16:49.999Z,75.50
2023-03-07T16:19:17.110Z,73.90
2023-03-07T16:21:44.015Z,73.50
2023-03-07T16:24:10.898Z,72.00
2023-03-07T16:26:39.328Z,71.10
2023-03-07T16:29:08.822Z,70.60
2023-03-07T16:31:35.790Z,68.40
2023-03-07T16:34:02.715Z,66.70
2023-03-07T16:36:29.616Z,65.30
2023-03-07T16:38:56.505Z,65.10
2023-03-07T16:41:23.422Z,65.40
2023-03-07T16:43:56.310Z,65.50
2023-03-07T16:46:24.261Z,64.40
2023-03-07T16:48:51.387Z,64.70
2023-03-07T16:51:21.624Z,65.60
2023-03-07T16:53:50.173Z,66.70
2023-03-07T16:56:40.549Z,66.90
2023-03-07T16:59:08.440Z,65.80
2023-03-07T17:01:35.535Z,67.10
2023-03-07T17:04:02.428Z,66.90
2023-03-07T17:06:38.809Z,66.80
2023-03-07T17:09:09.530Z,67.40
2023-03-07T17:11:39.356Z,67.80
2023-03-07T17:14:11.552Z,68.40
2023-03-07T17:16:45.301Z,68.30
2023-03-07T17:19:28.306Z,68.50
2023-03-07T17:21:57.517Z,69.20
2023-03-07T17:24:25.317Z,69.40
2023-03-07T17:26:53.748Z,69.60
2023-03-07T17:29:45.609Z,69.90
2023-03-07T17:32:12.622Z,70.20
2023-03-07T17:34:39.708Z,70.70
2023-03-07T17:37:07.591Z,70.90
2023-03-07T17:39:35.207Z,71.30
2023-03-07T17:42:03.212Z,71.40
2023-03-07T17:44:30.941Z,71.50
2023-03-07T17:46:58.475Z,71.60
2023-03-07T17:49:28.457Z,71.80
2023-03-07T17:51:55.396Z,71.70
2023-03-07T17:54:22.236Z,71.70
2023-03-07T17:56:49.118Z,71.60
2023-03-07T17:59:16.065Z,72.00
2023-03-07T18:01:43.123Z,71.60
2023-03-07T18:04:10.263Z,71.60
2023-03-07T18:06:39.412Z,71.90
2023-03-07T18:09:08.250Z,71.90
2023-03-07T18:11:35.885Z,71.30
2023-03-07T18:14:03.564Z,71.30
2023-03-07T18:16:31.064Z,71.30
2023-03-07T18:19:00.554Z,70.50
2023-03-07T18:21:29.777Z,71.00
2023-03-07T18:23:57.780Z,71.40
2023-03-07T18:26:25.213Z,71.40
2023-03-07T18:28:56.243Z,71.70
2023-03-07T18:31:28.096Z,72.00
2023-03-07T18:33:55.440Z,72.10
2023-03-07T18:36:24.880Z,72.00
2023-03-07T18:38:52.162Z,72.40
2023-03-07T18:41:23.110Z,72.60
2023-03-07T18:43:50.166Z,72.80
2023-03-07T18:46:20.445Z,73.10
2023-03-07T18:48:48.132Z,73.30
2023-03-07T18:51:26.609Z,73.50
2023-03-07T18:53:56.897Z,73.70
2023-03-07T18:56:24.488Z,73.80
2023-03-07T18:58:58.833Z,74.10
2023-03-07T19:01:37.234Z,73.70
2023-03-07T19:04:05.326Z,73.50
2023-03-07T19:06:39.625Z,73.60
2023-03-07T19:09:09.655Z,73.70
2023-03-07T19:11:36.682Z,74.00
2023-03-07T19:14:03.592Z,73.90
2023-03-07T19:16:30.477Z,74.10
2023-03-07T19:18:59.833Z,74.10
2023-03-07T19:21:29.444Z,74.20
2023-03-07T19:23:59.270Z,74.50
2023-03-07T19:26:26.408Z,74.60
2023-03-07T19:28:55.162Z,74.60
2023-03-07T19:31:31.175Z,75.00
2023-03-07T19:33:59.280Z,75.20
2023-03-07T19:36:28.728Z,75.50
2023-03-07T19:38:58.980Z,75.80
2023-03-07T19:41:28.302Z,76.10
2023-03-07T19:44:00.264Z,76.30
2023-03-07T19:46:27.828Z,76.80
2023-03-07T19:48:54.730Z,77.00
2023-03-07T19:51:25.322Z,77.50
2023-03-07T19:53:56.840Z,77.70
2023-03-07T19:56:32.021Z,78.10
2023-03-07T19:59:00.899Z,78.40
2023-03-07T20:01:29.807Z,78.70
2023-03-07T20:03:57.243Z,79.10
2023-03-07T20:06:29.938Z,79.30
2023-03-07T20:08:58.993Z,79.70
2023-03-07T20:11:29.879Z,80.20
2023-03-07T20:14:00.264Z,80.40
2023-03-07T20:16:29.227Z,80.60
2023-03-07T20:19:00.102Z,80.70
2023-03-07T20:21:28.670Z,81.00
2023-03-07T20:23:59.220Z,81.40
2023-03-07T20:26:31.581Z,81.40
2023-03-07T20:28:59.650Z,81.60
2023-03-07T20:31:26.813Z,81.50
2023-03-07T20:33:54.696Z,81.80
2023-03-07T20:36:25.472Z,81.80
2023-03-07T20:38:55.823Z,82.00
2023-03-07T20:41:26.479Z,82.00
2023-03-07T20:44:00.894Z,82.10
2023-03-07T20:46:28.256Z,82.20
2023-03-07T20:48:56.294Z,82.20
2023-03-07T20:51:27.195Z,82.40
2023-03-07T20:53:58.221Z,82.60
2023-03-07T20:56:28.089Z,82.60
2023-03-07T20:58:56.073Z,82.70
2023-03-07T21:01:25.559Z,82.80
2023-03-07T21:03:53.710Z,82.90
2023-03-07T21:06:21.097Z,82.90
2023-03-07T21:08:48.310Z,82.90
2023-03-07T21:11:18.655Z,82.80
2023-03-07T21:13:48.140Z,82.60
2023-03-07T21:16:21.033Z,82.60
2023-03-07T21:18:48.868Z,82.70
2023-03-07T21:21:19.659Z,82.70
2023-03-07T21:23:47.347Z,82.90
2023-03-07T21:26:17.666Z,83.00
2023-03-07T21:28:45.281Z,83.20
2023-03-07T21:31:25.139Z,83.30
2023-03-07T21:33:55.111Z,83.50
2023-03-07T21:36:23.367Z,83.90
2023-03-07T21:38:50.268Z,84.10
2023-03-07T21:41:19.108Z,84.30
2023-03-07T21:43:46.094Z,84.30
2023-03-07T21:46:14.144Z,84.30
2023-03-07T21:48:42.022Z,84.60
2023-03-07T21:51:09.504Z,84.70
2023-03-07T21:53:37.148Z,84.70
2023-03-07T21:56:08.096Z,84.80
2023-03-07T21:58:36.698Z,85.10
2023-03-07T22:01:16.443Z,85.10
2023-03-07T22:03:43.789Z,85.40
2023-03-07T22:06:13.951Z,85.30
2023-03-07T22:08:41.440Z,85.50
2023-03-07T22:11:10.267Z,85.50
2023-03-07T22:13:40.190Z,85.60
2023-03-07T22:16:20.493Z,86.00
2023-03-07T22:18:53.614Z,86.20
2023-03-07T22:21:21.226Z,86.10
2023-03-07T22:23:48.106Z,86.30
2023-03-07T22:26:15.043Z,86.30
2023-03-07T22:28:42.221Z,86.40
2023-03-07T22:31:12.240Z,86.30
2023-03-07T22:33:40.694Z,86.80
2023-03-07T22:36:11.272Z,86.60
2023-03-07T22:38:38.474Z,86.70
2023-03-07T22:41:12.346Z,86.80
2023-03-07T22:43:39.333Z,86.80
2023-03-07T22:46:07.300Z,86.80
2023-03-07T22:48:35.332Z,86.90
2023-03-07T22:51:02.496Z,87.10
2023-03-07T22:53:33.423Z,86.90
2023-03-07T22:56:01.066Z,87.10
2023-03-07T22:58:29.348Z,87.00
2023-03-07T23:00:56.293Z,87.10
2023-03-07T23:03:23.438Z,87.20
2023-03-07T23:05:50.728Z,87.60
2023-03-07T23:08:17.691Z,87.30
2023-03-07T23:10:44.663Z,87.30
2023-03-07T23:13:11.537Z,87.40
2023-03-07T23:15:41.645Z,87.50
2023-03-07T23:18:08.764Z,87.60
2023-03-07T23:20:38.854Z,87.70
2023-03-07T23:23:06.399Z,87.70
2023-03-07T23:25:33.443Z,87.90
2023-03-07T23:28:00.458Z,87.90
2023-03-07T23:30:27.373Z,88.10
2023-03-07T23:32:55.199Z,88.10
2023-03-07T23:35:22.136Z,88.20
2023-03-07T23:37:49.007Z,88.40
2023-03-07T23:40:15.908Z,88.40
2023-03-07T23:42:42.873Z,88.50
2023-03-07T23:45:10.097Z,88.60
2023-03-07T23:47:37.072Z,88.80
2023-03-07T23:50:04.231Z,88.90
2023-03-07T23:52:31.115Z,88.90
2023-03-07T23:54:57.995Z,89.20
2023-03-07T23:57:24.873Z,89.20
2023-03-07T23:59:52.084Z,89.50
